Accueil
METAR-TAF:

METAR-TAF

Aéroports :

Aéroport de Morlaix Ploujean

Morlaix, France

latitude: 48-36N, longitude: 3-49W, altitude: 84 m

Observation

Le bulletin a été fait il y a 15 minutes, à 18:00 UTC
Vent 23 kt de nord-est
Température 7°C
Humidité 61%
Pression 1034 hPa
Visibilité 10 km ou plus
Nuages fragmentés à une hauteur de 3500 ft
Nuages fragmentés à une hauteur de 6600 ft

METAR: LFRU 291800Z AUTO 05023KT 9999 BKN035 BKN066 07/M00 Q1034

Heure: 20:15 (18:15 UTC)


TAF: absent

Observations et prévisions météorologiques de plus de 4000 aéroports (messages METAR et TAF).

Les stations disponibles sont représentées par des disques jaunes et rouges sur la carte.

Passer la souris dessus pour voir le nom de la station.

Cliquer dessus pour voir les observations et prévisions météorologiques.

Pour changer de carte: cliquez sur les boutons verts avec une croix noire pour zoomer, sur le bouton vert avec un tiret pour effectuer un zoom arrière, ou sur les flèches vertes pour les cartes adjacentes.


METAR-TAF: